📊 Raw Sensor Data
Showing records 45176 to 45200 of 85,049 total
| ID | Distance (ft) | Battery V | Battery A | Int Temp (°F) | Int Humid (%) | Ext Temp (°F) | Solar V | RSSI | SNR | Time Stamp |
|---|---|---|---|---|---|---|---|---|---|---|
| 39886 | 16.0 | 3.94 | -5 | 61 | 49 | 61 | 0.10 | -72 | 7 | 05/06/2025 08:45 PM |
| 39885 | 16.0 | 3.95 | -5 | 62 | 50 | 62 | 0.00 | -69 | 8 | 05/06/2025 08:30 PM |
| 39884 | 16.0 | 3.95 | -5 | 64 | 52 | 63 | 1.20 | -72 | 7 | 05/06/2025 08:15 PM |
| 39883 | 16.0 | 3.94 | -29 | 67 | 53 | 64 | 4.30 | -70 | 7 | 05/06/2025 08:00 PM |
| 39882 | 16.0 | 3.96 | 0 | 71 | 52 | 67 | 4.50 | -70 | 7 | 05/06/2025 07:45 PM |
| 39881 | 16.1 | 4.04 | 5 | 75 | 51 | 69 | 4.50 | -68 | 8 | 05/06/2025 07:30 PM |
| 39880 | 16.1 | 4.05 | 10 | 77 | 51 | 71 | 4.60 | -69 | 6 | 05/06/2025 07:15 PM |
| 39879 | 16.2 | 4.00 | 12 | 80 | 51 | 72 | 4.50 | -70 | 8 | 05/06/2025 07:00 PM |
| 39878 | 16.1 | 4.03 | 15 | 83 | 50 | 74 | 4.50 | -70 | 7 | 05/06/2025 06:45 PM |
| 39877 | 16.1 | 4.00 | 0 | 88 | 49 | 79 | 5.10 | -70 | 7 | 05/06/2025 06:15 PM |
| 39876 | 16.2 | 4.05 | 0 | 89 | 48 | 81 | 5.10 | -69 | 7 | 05/06/2025 06:00 PM |
| 39875 | 16.2 | 4.00 | 0 | 91 | 47 | 83 | 5.10 | -69 | 7 | 05/06/2025 05:45 PM |
| 39874 | 16.3 | 4.10 | 0 | 93 | 46 | 85 | 5.10 | -69 | 7 | 05/06/2025 05:30 PM |
| 39873 | 16.2 | 4.07 | 0 | 95 | 44 | 84 | 5.10 | -68 | 8 | 05/06/2025 05:15 PM |
| 39872 | 16.1 | 4.00 | 0 | 95 | 43 | 86 | 5.10 | -71 | 7 | 05/06/2025 05:00 PM |
| 39871 | 16.2 | 4.06 | 0 | 95 | 43 | 86 | 5.10 | -69 | 8 | 05/06/2025 04:45 PM |
| 39870 | 16.1 | 4.00 | 0 | 95 | 43 | 86 | 5.10 | -69 | 8 | 05/06/2025 04:30 PM |
| 39869 | 16.2 | 4.00 | 0 | 95 | 43 | 86 | 5.10 | -69 | 8 | 05/06/2025 04:15 PM |
| 39868 | 16.1 | 4.07 | 0 | 95 | 42 | 86 | 5.10 | -69 | 8 | 05/06/2025 04:00 PM |
| 39867 | 16.2 | 4.02 | 0 | 95 | 42 | 87 | 5.10 | -69 | 8 | 05/06/2025 03:45 PM |
| 39866 | 16.2 | 4.00 | 0 | 94 | 42 | 86 | 5.10 | -72 | 7 | 05/06/2025 03:30 PM |
| 39865 | 16.2 | 4.00 | 0 | 94 | 41 | 86 | 5.10 | -69 | 8 | 05/06/2025 03:15 PM |
| 39864 | 16.2 | 4.00 | 0 | 93 | 41 | 87 | 5.10 | -71 | 7 | 05/06/2025 03:00 PM |
| 39863 | 16.2 | 4.00 | 0 | 93 | 41 | 85 | 5.10 | -72 | 7 | 05/06/2025 02:45 PM |
| 39862 | 16.2 | 4.00 | 0 | 92 | 40 | 84 | 5.10 | -71 | 8 | 05/06/2025 02:30 PM |